sensor_id;sensor_type;location;lat;lon;timestamp;P1;durP1;ratioP1;P2;durP2;ratioP2
17199;SDS011;8716;52.268;20.968;2024-03-08T00:01:11;19.20;;;12.70;;
17199;SDS011;8716;52.268;20.968;2024-03-08T00:03:39;22.55;;;14.75;;
17199;SDS011;8716;52.268;20.968;2024-03-08T00:06:07;12.15;;;11.50;;
17199;SDS011;8716;52.268;20.968;2024-03-08T00:08:36;16.23;;;15.43;;
17199;SDS011;8716;52.268;20.968;2024-03-08T00:11:05;20.13;;;13.50;;
17199;SDS011;8716;52.268;20.968;2024-03-08T00:13:34;10.80;;;10.20;;
17199;SDS011;8716;52.268;20.968;2024-03-08T00:16:03;18.35;;;17.42;;
17199;SDS011;8716;52.268;20.968;2024-03-08T00:18:32;15.75;;;14.98;;
17199;SDS011;8716;52.268;20.968;2024-03-08T00:21:00;20.20;;;14.82;;
17199;SDS011;8716;52.268;20.968;2024-03-08T00:23:28;19.13;;;17.38;;
17199;SDS011;8716;52.268;20.968;2024-03-08T00:25:56;14.90;;;12.23;;
17199;SDS011;8716;52.268;20.968;2024-03-08T00:28:26;18.10;;;13.48;;
17199;SDS011;8716;52.268;20.968;2024-03-08T00:30:54;13.20;;;12.50;;
17199;SDS011;8716;52.268;20.968;2024-03-08T00:33:22;14.95;;;11.50;;
17199;SDS011;8716;52.268;20.968;2024-03-08T00:35:51;13.68;;;12.98;;
17199;SDS011;8716;52.268;20.968;2024-03-08T00:38:19;16.50;;;11.18;;
17199;SDS011;8716;52.268;20.968;2024-03-08T00:40:47;14.00;;;13.23;;
17199;SDS011;8716;52.268;20.968;2024-03-08T00:43:15;10.98;;;10.38;;
17199;SDS011;8716;52.268;20.968;2024-03-08T00:45:45;22.63;;;14.80;;
17199;SDS011;8716;52.268;20.968;2024-03-08T00:48:13;17.33;;;14.38;;
17199;SDS011;8716;52.268;20.968;2024-03-08T00:50:42;12.35;;;11.75;;
17199;SDS011;8716;52.268;20.968;2024-03-08T00:53:12;18.23;;;15.43;;
17199;SDS011;8716;52.268;20.968;2024-03-08T00:55:40;17.40;;;15.70;;
17199;SDS011;8716;52.268;20.968;2024-03-08T00:58:09;17.70;;;14.57;;
17199;SDS011;8716;52.268;20.968;2024-03-08T01:00:37;17.20;;;14.73;;
17199;SDS011;8716;52.268;20.968;2024-03-08T01:03:07;15.57;;;14.77;;
17199;SDS011;8716;52.268;20.968;2024-03-08T01:05:35;15.20;;;14.40;;
17199;SDS011;8716;52.268;20.968;2024-03-08T01:08:04;27.90;;;19.00;;
17199;SDS011;8716;52.268;20.968;2024-03-08T01:10:32;14.75;;;13.98;;
17199;SDS011;8716;52.268;20.968;2024-03-08T01:13:01;14.43;;;13.43;;
17199;SDS011;8716;52.268;20.968;2024-03-08T01:15:29;19.48;;;12.32;;
17199;SDS011;8716;52.268;20.968;2024-03-08T01:17:57;24.90;;;13.45;;
17199;SDS011;8716;52.268;20.968;2024-03-08T01:20:29;13.05;;;12.38;;
17199;SDS011;8716;52.268;20.968;2024-03-08T01:22:57;20.13;;;13.98;;
17199;SDS011;8716;52.268;20.968;2024-03-08T01:25:28;20.02;;;14.82;;
17199;SDS011;8716;52.268;20.968;2024-03-08T01:27:58;20.92;;;14.15;;
17199;SDS011;8716;52.268;20.968;2024-03-08T01:30:26;16.48;;;15.55;;
17199;SDS011;8716;52.268;20.968;2024-03-08T01:32:55;18.27;;;12.63;;
17199;SDS011;8716;52.268;20.968;2024-03-08T01:35:23;22.98;;;15.05;;
17199;SDS011;8716;52.268;20.968;2024-03-08T01:37:54;17.17;;;13.10;;
17199;SDS011;8716;52.268;20.968;2024-03-08T01:40:22;14.82;;;14.05;;
17199;SDS011;8716;52.268;20.968;2024-03-08T01:42:51;14.07;;;13.25;;
17199;SDS011;8716;52.268;20.968;2024-03-08T01:45:20;16.85;;;13.00;;
17199;SDS011;8716;52.268;20.968;2024-03-08T01:47:48;21.98;;;16.58;;
17199;SDS011;8716;52.268;20.968;2024-03-08T01:50:17;14.68;;;12.30;;
17199;SDS011;8716;52.268;20.968;2024-03-08T01:52:46;19.77;;;13.80;;
17199;SDS011;8716;52.268;20.968;2024-03-08T01:55:15;14.18;;;11.95;;
17199;SDS011;8716;52.268;20.968;2024-03-08T01:57:44;11.55;;;10.95;;
17199;SDS011;8716;52.268;20.968;2024-03-08T02:00:13;12.13;;;11.50;;
17199;SDS011;8716;52.268;20.968;2024-03-08T02:02:43;11.50;;;10.90;;
17199;SDS011;8716;52.268;20.968;2024-03-08T02:05:14;20.92;;;12.48;;
17199;SDS011;8716;52.268;20.968;2024-03-08T02:07:42;23.30;;;16.85;;
17199;SDS011;8716;52.268;20.968;2024-03-08T02:10:11;13.82;;;13.13;;
17199;SDS011;8716;52.268;20.968;2024-03-08T02:12:41;14.32;;;13.23;;
17199;SDS011;8716;52.268;20.968;2024-03-08T02:15:09;13.65;;;12.95;;
17199;SDS011;8716;52.268;20.968;2024-03-08T02:17:38;18.70;;;11.88;;
17199;SDS011;8716;52.268;20.968;2024-03-08T02:20:07;12.38;;;11.77;;
17199;SDS011;8716;52.268;20.968;2024-03-08T02:22:38;15.15;;;12.60;;
17199;SDS011;8716;52.268;20.968;2024-03-08T02:25:07;23.23;;;15.70;;
17199;SDS011;8716;52.268;20.968;2024-03-08T02:27:36;24.52;;;18.73;;
17199;SDS011;8716;52.268;20.968;2024-03-08T02:30:04;17.05;;;14.32;;
17199;SDS011;8716;52.268;20.968;2024-03-08T02:32:33;20.52;;;17.48;;
17199;SDS011;8716;52.268;20.968;2024-03-08T02:35:02;14.02;;;13.30;;
17199;SDS011;8716;52.268;20.968;2024-03-08T02:37:32;10.75;;;10.15;;
17199;SDS011;8716;52.268;20.968;2024-03-08T02:40:02;13.52;;;11.98;;
17199;SDS011;8716;52.268;20.968;2024-03-08T02:42:32;16.48;;;15.68;;
17199;SDS011;8716;52.268;20.968;2024-03-08T02:45:00;24.27;;;14.20;;
17199;SDS011;8716;52.268;20.968;2024-03-08T02:47:28;25.33;;;20.23;;
17199;SDS011;8716;52.268;20.968;2024-03-08T02:49:57;18.77;;;17.85;;
17199;SDS011;8716;52.268;20.968;2024-03-08T02:52:27;24.40;;;16.65;;
17199;SDS011;8716;52.268;20.968;2024-03-08T02:54:58;16.17;;;15.27;;
17199;SDS011;8716;52.268;20.968;2024-03-08T02:57:28;14.93;;;14.13;;
17199;SDS011;8716;52.268;20.968;2024-03-08T02:59:56;21.75;;;15.75;;
17199;SDS011;8716;52.268;20.968;2024-03-08T03:02:26;15.95;;;13.20;;
17199;SDS011;8716;52.268;20.968;2024-03-08T03:04:54;20.83;;;19.20;;
17199;SDS011;8716;52.268;20.968;2024-03-08T03:07:23;12.23;;;11.63;;
17199;SDS011;8716;52.268;20.968;2024-03-08T03:09:54;15.20;;;14.40;;
17199;SDS011;8716;52.268;20.968;2024-03-08T03:12:22;15.25;;;13.77;;
17199;SDS011;8716;52.268;20.968;2024-03-08T03:14:52;12.85;;;12.18;;
17199;SDS011;8716;52.268;20.968;2024-03-08T03:17:20;15.20;;;14.43;;
17199;SDS011;8716;52.268;20.968;2024-03-08T03:19:48;17.70;;;16.80;;
17199;SDS011;8716;52.268;20.968;2024-03-08T03:22:17;15.85;;;15.05;;
17199;SDS011;8716;52.268;20.968;2024-03-08T03:24:45;11.55;;;10.95;;
17199;SDS011;8716;52.268;20.968;2024-03-08T03:27:13;20.63;;;16.45;;
17199;SDS011;8716;52.268;20.968;2024-03-08T03:29:42;13.20;;;12.50;;
17199;SDS011;8716;52.268;20.968;2024-03-08T03:32:14;14.30;;;13.60;;
17199;SDS011;8716;52.268;20.968;2024-03-08T03:34:45;15.73;;;14.93;;
17199;SDS011;8716;52.268;20.968;2024-03-08T03:37:13;17.50;;;16.60;;
17199;SDS011;8716;52.268;20.968;2024-03-08T03:39:41;19.10;;;18.13;;
17199;SDS011;8716;52.268;20.968;2024-03-08T03:42:16;21.80;;;17.85;;
17199;SDS011;8716;52.268;20.968;2024-03-08T03:44:44;12.88;;;12.18;;
17199;SDS011;8716;52.268;20.968;2024-03-08T03:47:15;16.08;;;15.27;;
17199;SDS011;8716;52.268;20.968;2024-03-08T03:49:43;14.35;;;13.65;;
17199;SDS011;8716;52.268;20.968;2024-03-08T03:52:12;16.50;;;13.75;;
17199;SDS011;8716;52.268;20.968;2024-03-08T03:54:42;16.67;;;15.80;;
17199;SDS011;8716;52.268;20.968;2024-03-08T03:57:10;13.65;;;12.95;;
17199;SDS011;8716;52.268;20.968;2024-03-08T03:59:38;24.35;;;15.55;;
17199;SDS011;8716;52.268;20.968;2024-03-08T04:02:08;16.73;;;15.88;;
17199;SDS011;8716;52.268;20.968;2024-03-08T04:04:38;28.05;;;19.20;;
17199;SDS011;8716;52.268;20.968;2024-03-08T04:07:06;12.77;;;11.45;;
17199;SDS011;8716;52.268;20.968;2024-03-08T04:09:36;17.88;;;16.95;;
17199;SDS011;8716;52.268;20.968;2024-03-08T04:12:04;18.00;;;15.38;;
17199;SDS011;8716;52.268;20.968;2024-03-08T04:14:33;21.77;;;15.10;;
17199;SDS011;8716;52.268;20.968;2024-03-08T04:17:02;15.07;;;14.30;;
17199;SDS011;8716;52.268;20.968;2024-03-08T04:19:30;16.52;;;15.52;;
17199;SDS011;8716;52.268;20.968;2024-03-08T04:22:02;19.50;;;17.40;;
17199;SDS011;8716;52.268;20.968;2024-03-08T04:24:30;12.88;;;12.20;;
17199;SDS011;8716;52.268;20.968;2024-03-08T04:26:59;22.23;;;15.25;;
17199;SDS011;8716;52.268;20.968;2024-03-08T04:29:27;18.60;;;17.67;;
17199;SDS011;8716;52.268;20.968;2024-03-08T04:31:56;17.23;;;13.85;;
17199;SDS011;8716;52.268;20.968;2024-03-08T04:34:25;15.82;;;13.68;;
17199;SDS011;8716;52.268;20.968;2024-03-08T04:36:56;13.82;;;12.80;;
17199;SDS011;8716;52.268;20.968;2024-03-08T04:39:28;11.80;;;11.20;;
17199;SDS011;8716;52.268;20.968;2024-03-08T04:41:58;18.25;;;16.92;;
17199;SDS011;8716;52.268;20.968;2024-03-08T04:44:31;13.30;;;11.85;;
17199;SDS011;8716;52.268;20.968;2024-03-08T04:47:00;15.13;;;14.32;;
17199;SDS011;8716;52.268;20.968;2024-03-08T04:49:28;16.30;;;15.48;;
17199;SDS011;8716;52.268;20.968;2024-03-08T04:51:56;18.92;;;17.98;;
17199;SDS011;8716;52.268;20.968;2024-03-08T04:54:25;16.85;;;16.00;;
17199;SDS011;8716;52.268;20.968;2024-03-08T04:56:54;21.92;;;20.60;;
17199;SDS011;8716;52.268;20.968;2024-03-08T04:59:22;18.40;;;17.50;;
17199;SDS011;8716;52.268;20.968;2024-03-08T05:01:51;16.05;;;15.25;;
17199;SDS011;8716;52.268;20.968;2024-03-08T05:04:19;17.33;;;16.42;;
17199;SDS011;8716;52.268;20.968;2024-03-08T05:06:47;19.50;;;18.10;;
17199;SDS011;8716;52.268;20.968;2024-03-08T05:09:15;18.33;;;17.42;;
17199;SDS011;8716;52.268;20.968;2024-03-08T05:11:46;19.50;;;16.73;;
17199;SDS011;8716;52.268;20.968;2024-03-08T05:14:18;27.70;;;17.23;;
17199;SDS011;8716;52.268;20.968;2024-03-08T05:16:47;15.32;;;14.52;;
17199;SDS011;8716;52.268;20.968;2024-03-08T05:19:17;37.80;;;16.08;;
17199;SDS011;8716;52.268;20.968;2024-03-08T05:21:46;17.30;;;16.42;;
17199;SDS011;8716;52.268;20.968;2024-03-08T05:24:15;14.50;;;13.80;;
17199;SDS011;8716;52.268;20.968;2024-03-08T05:26:45;23.48;;;17.00;;
17199;SDS011;8716;52.268;20.968;2024-03-08T05:29:14;29.98;;;17.88;;
17199;SDS011;8716;52.268;20.968;2024-03-08T05:31:45;19.38;;;18.38;;
17199;SDS011;8716;52.268;20.968;2024-03-08T05:34:14;17.25;;;16.35;;
17199;SDS011;8716;52.268;20.968;2024-03-08T05:36:45;14.27;;;13.57;;
17199;SDS011;8716;52.268;20.968;2024-03-08T05:39:16;15.25;;;13.35;;
17199;SDS011;8716;52.268;20.968;2024-03-08T05:41:45;16.45;;;15.65;;
17199;SDS011;8716;52.268;20.968;2024-03-08T05:44:13;21.70;;;15.18;;
17199;SDS011;8716;52.268;20.968;2024-03-08T05:46:45;14.57;;;13.18;;
17199;SDS011;8716;52.268;20.968;2024-03-08T05:49:14;16.13;;;13.30;;
17199;SDS011;8716;52.268;20.968;2024-03-08T05:51:44;11.27;;;10.68;;
17199;SDS011;8716;52.268;20.968;2024-03-08T05:54:14;17.83;;;16.40;;
17199;SDS011;8716;52.268;20.968;2024-03-08T05:56:46;19.05;;;18.08;;
17199;SDS011;8716;52.268;20.968;2024-03-08T05:59:15;21.15;;;18.27;;
17199;SDS011;8716;52.268;20.968;2024-03-08T06:01:45;17.13;;;16.23;;
17199;SDS011;8716;52.268;20.968;2024-03-08T06:04:13;15.00;;;14.23;;
17199;SDS011;8716;52.268;20.968;2024-03-08T06:06:42;19.98;;;17.00;;
17199;SDS011;8716;52.268;20.968;2024-03-08T06:09:10;16.10;;;15.32;;
17199;SDS011;8716;52.268;20.968;2024-03-08T06:11:50;28.38;;;15.77;;
17199;SDS011;8716;52.268;20.968;2024-03-08T06:14:19;18.17;;;17.27;;
17199;SDS011;8716;52.268;20.968;2024-03-08T06:16:48;18.10;;;17.20;;
17199;SDS011;8716;52.268;20.968;2024-03-08T06:19:17;15.80;;;15.00;;
17199;SDS011;8716;52.268;20.968;2024-03-08T06:21:45;22.27;;;14.57;;
17199;SDS011;8716;52.268;20.968;2024-03-08T06:24:14;27.90;;;17.45;;
17199;SDS011;8716;52.268;20.968;2024-03-08T06:26:42;17.75;;;16.85;;
17199;SDS011;8716;52.268;20.968;2024-03-08T06:29:11;20.45;;;19.45;;
17199;SDS011;8716;52.268;20.968;2024-03-08T06:31:39;38.70;;;21.15;;
17199;SDS011;8716;52.268;20.968;2024-03-08T06:34:09;16.85;;;15.88;;
17199;SDS011;8716;52.268;20.968;2024-03-08T06:36:38;19.80;;;15.73;;
17199;SDS011;8716;52.268;20.968;2024-03-08T06:39:06;16.45;;;15.63;;
17199;SDS011;8716;52.268;20.968;2024-03-08T06:41:36;18.25;;;17.35;;
17199;SDS011;8716;52.268;20.968;2024-03-08T06:44:05;18.05;;;17.02;;
17199;SDS011;8716;52.268;20.968;2024-03-08T06:46:35;15.10;;;14.30;;
17199;SDS011;8716;52.268;20.968;2024-03-08T06:49:03;15.35;;;14.48;;
17199;SDS011;8716;52.268;20.968;2024-03-08T06:51:33;15.15;;;14.38;;
17199;SDS011;8716;52.268;20.968;2024-03-08T06:54:01;14.38;;;13.65;;
17199;SDS011;8716;52.268;20.968;2024-03-08T06:56:35;14.90;;;12.07;;
17199;SDS011;8716;52.268;20.968;2024-03-08T06:59:05;13.50;;;12.80;;
17199;SDS011;8716;52.268;20.968;2024-03-08T07:01:34;15.63;;;14.82;;
17199;SDS011;8716;52.268;20.968;2024-03-08T07:04:03;14.95;;;14.00;;
17199;SDS011;8716;52.268;20.968;2024-03-08T07:06:34;17.83;;;13.63;;
17199;SDS011;8716;52.268;20.968;2024-03-08T07:09:03;10.38;;;9.88;;
17199;SDS011;8716;52.268;20.968;2024-03-08T07:11:31;16.27;;;13.52;;
17199;SDS011;8716;52.268;20.968;2024-03-08T07:14:01;11.30;;;10.70;;
17199;SDS011;8716;52.268;20.968;2024-03-08T07:16:32;15.52;;;10.35;;
17199;SDS011;8716;52.268;20.968;2024-03-08T07:19:01;11.60;;;11.00;;
17199;SDS011;8716;52.268;20.968;2024-03-08T07:21:30;17.80;;;11.48;;
17199;SDS011;8716;52.268;20.968;2024-03-08T07:23:59;11.43;;;10.85;;
17199;SDS011;8716;52.268;20.968;2024-03-08T07:26:45;13.25;;;12.55;;
17199;SDS011;8716;52.268;20.968;2024-03-08T07:29:16;26.73;;;12.30;;
17199;SDS011;8716;52.268;20.968;2024-03-08T07:31:44;19.15;;;13.27;;
17199;SDS011;8716;52.268;20.968;2024-03-08T07:34:21;9.32;;;8.68;;
17199;SDS011;8716;52.268;20.968;2024-03-08T07:36:50;10.18;;;9.68;;
17199;SDS011;8716;52.268;20.968;2024-03-08T07:39:19;8.63;;;8.13;;
17199;SDS011;8716;52.268;20.968;2024-03-08T07:42:03;15.27;;;11.30;;
17199;SDS011;8716;52.268;20.968;2024-03-08T07:44:31;12.80;;;12.10;;
17199;SDS011;8716;52.268;20.968;2024-03-08T07:46:59;11.20;;;10.60;;
17199;SDS011;8716;52.268;20.968;2024-03-08T07:49:28;10.80;;;10.20;;
17199;SDS011;8716;52.268;20.968;2024-03-08T07:51:56;10.07;;;9.57;;
17199;SDS011;8716;52.268;20.968;2024-03-08T07:54:27;9.45;;;8.95;;
17199;SDS011;8716;52.268;20.968;2024-03-08T07:56:55;7.25;;;6.85;;
17199;SDS011;8716;52.268;20.968;2024-03-08T07:59:23;16.83;;;15.98;;
17199;SDS011;8716;52.268;20.968;2024-03-08T08:01:52;9.52;;;9.02;;
17199;SDS011;8716;52.268;20.968;2024-03-08T08:04:20;9.10;;;8.32;;
17199;SDS011;8716;52.268;20.968;2024-03-08T08:06:55;10.65;;;9.05;;
17199;SDS011;8716;52.268;20.968;2024-03-08T08:09:24;8.63;;;8.13;;
17199;SDS011;8716;52.268;20.968;2024-03-08T08:12:02;13.88;;;11.35;;
17199;SDS011;8716;52.268;20.968;2024-03-08T08:14:31;9.93;;;8.13;;
17199;SDS011;8716;52.268;20.968;2024-03-08T08:16:59;8.70;;;8.00;;
17199;SDS011;8716;52.268;20.968;2024-03-08T08:19:30;6.00;;;5.70;;
17199;SDS011;8716;52.268;20.968;2024-03-08T08:21:59;6.82;;;6.43;;
17199;SDS011;8716;52.268;20.968;2024-03-08T08:24:28;13.13;;;7.30;;
17199;SDS011;8716;52.268;20.968;2024-03-08T08:26:56;12.13;;;11.52;;
17199;SDS011;8716;52.268;20.968;2024-03-08T08:29:26;9.80;;;9.30;;
17199;SDS011;8716;52.268;20.968;2024-03-08T08:31:54;9.82;;;9.32;;
17199;SDS011;8716;52.268;20.968;2024-03-08T08:34:28;11.75;;;11.15;;
17199;SDS011;8716;52.268;20.968;2024-03-08T08:36:56;9.05;;;8.57;;
17199;SDS011;8716;52.268;20.968;2024-03-08T08:39:25;8.82;;;8.07;;
17199;SDS011;8716;52.268;20.968;2024-03-08T08:41:54;14.98;;;14.20;;
17199;SDS011;8716;52.268;20.968;2024-03-08T08:44:23;10.82;;;10.23;;
17199;SDS011;8716;52.268;20.968;2024-03-08T08:46:53;17.65;;;10.63;;
17199;SDS011;8716;52.268;20.968;2024-03-08T08:49:31;15.20;;;14.40;;
17199;SDS011;8716;52.268;20.968;2024-03-08T08:52:00;13.50;;;12.80;;
17199;SDS011;8716;52.268;20.968;2024-03-08T08:54:41;11.70;;;11.10;;
17199;SDS011;8716;52.268;20.968;2024-03-08T08:57:15;14.77;;;11.70;;
17199;SDS011;8716;52.268;20.968;2024-03-08T08:59:44;14.23;;;13.53;;
17199;SDS011;8716;52.268;20.968;2024-03-08T09:02:14;13.10;;;12.40;;
17199;SDS011;8716;52.268;20.968;2024-03-08T09:04:44;16.10;;;13.23;;
17199;SDS011;8716;52.268;20.968;2024-03-08T09:07:12;15.37;;;14.43;;
17199;SDS011;8716;52.268;20.968;2024-03-08T09:09:41;19.63;;;18.63;;
17199;SDS011;8716;52.268;20.968;2024-03-08T09:12:10;17.23;;;16.33;;
17199;SDS011;8716;52.268;20.968;2024-03-08T09:14:40;18.63;;;17.73;;
17199;SDS011;8716;52.268;20.968;2024-03-08T09:17:08;17.30;;;16.40;;
17199;SDS011;8716;52.268;20.968;2024-03-08T09:19:38;15.23;;;14.43;;
17199;SDS011;8716;52.268;20.968;2024-03-08T09:22:06;31.40;;;23.87;;
17199;SDS011;8716;52.268;20.968;2024-03-08T09:24:34;17.37;;;16.27;;
17199;SDS011;8716;52.268;20.968;2024-03-08T09:27:03;22.77;;;18.60;;
17199;SDS011;8716;52.268;20.968;2024-03-08T09:29:32;34.00;;;19.77;;
17199;SDS011;8716;52.268;20.968;2024-03-08T09:32:00;20.90;;;19.90;;
17199;SDS011;8716;52.268;20.968;2024-03-08T09:34:28;18.10;;;17.20;;
17199;SDS011;8716;52.268;20.968;2024-03-08T09:37:05;16.13;;;15.33;;
17199;SDS011;8716;52.268;20.968;2024-03-08T09:39:35;19.20;;;18.23;;
17199;SDS011;8716;52.268;20.968;2024-03-08T09:42:04;17.27;;;16.37;;
17199;SDS011;8716;52.268;20.968;2024-03-08T09:44:33;19.23;;;14.70;;
17199;SDS011;8716;52.268;20.968;2024-03-08T09:47:02;23.67;;;18.57;;
17199;SDS011;8716;52.268;20.968;2024-03-08T09:49:33;15.77;;;14.80;;
17199;SDS011;8716;52.268;20.968;2024-03-08T09:52:05;15.30;;;14.00;;
17199;SDS011;8716;52.268;20.968;2024-03-08T09:54:34;14.07;;;13.10;;
17199;SDS011;8716;52.268;20.968;2024-03-08T09:57:05;14.43;;;13.70;;
17199;SDS011;8716;52.268;20.968;2024-03-08T09:59:35;17.30;;;16.20;;
17199;SDS011;8716;52.268;20.968;2024-03-08T10:02:15;22.10;;;13.80;;
17199;SDS011;8716;52.268;20.968;2024-03-08T10:04:44;11.67;;;11.10;;
17199;SDS011;8716;52.268;20.968;2024-03-08T10:07:16;14.07;;;13.37;;
17199;SDS011;8716;52.268;20.968;2024-03-08T10:09:44;14.67;;;13.93;;
17199;SDS011;8716;52.268;20.968;2024-03-08T10:12:17;15.37;;;14.57;;
17199;SDS011;8716;52.268;20.968;2024-03-08T10:14:46;16.27;;;15.47;;
17199;SDS011;8716;52.268;20.968;2024-03-08T10:21:28;15.07;;;14.27;;
17199;SDS011;8716;52.268;20.968;2024-03-08T10:23:58;18.83;;;17.90;;
17199;SDS011;8716;52.268;20.968;2024-03-08T10:26:27;15.73;;;13.70;;
17199;SDS011;8716;52.268;20.968;2024-03-08T10:28:57;13.60;;;12.90;;
17199;SDS011;8716;52.268;20.968;2024-03-08T10:31:26;13.80;;;13.10;;
17199;SDS011;8716;52.268;20.968;2024-03-08T10:33:56;18.67;;;14.10;;
17199;SDS011;8716;52.268;20.968;2024-03-08T10:36:25;13.80;;;11.83;;
17199;SDS011;8716;52.268;20.968;2024-03-08T10:38:55;16.93;;;13.90;;
17199;SDS011;8716;52.268;20.968;2024-03-08T10:41:27;14.17;;;12.60;;
17199;SDS011;8716;52.268;20.968;2024-03-08T10:44:10;12.63;;;11.97;;
17199;SDS011;8716;52.268;20.968;2024-03-08T10:46:56;12.30;;;11.73;;
17199;SDS011;8716;52.268;20.968;2024-03-08T10:49:32;13.10;;;12.40;;
17199;SDS011;8716;52.268;20.968;2024-03-08T10:52:05;12.03;;;11.43;;
17199;SDS011;8716;52.268;20.968;2024-03-08T10:54:37;12.47;;;11.87;;
17199;SDS011;8716;52.268;20.968;2024-03-08T10:57:11;15.03;;;14.23;;
17199;SDS011;8716;52.268;20.968;2024-03-08T10:59:41;13.27;;;11.73;;
17199;SDS011;8716;52.268;20.968;2024-03-08T11:02:10;11.87;;;10.20;;
17199;SDS011;8716;52.268;20.968;2024-03-08T11:04:42;16.00;;;14.50;;
17199;SDS011;8716;52.268;20.968;2024-03-08T11:07:13;9.47;;;8.97;;
17199;SDS011;8716;52.268;20.968;2024-03-08T11:09:45;12.80;;;11.93;;
17199;SDS011;8716;52.268;20.968;2024-03-08T11:12:19;12.43;;;11.80;;
17199;SDS011;8716;52.268;20.968;2024-03-08T11:14:49;10.73;;;10.17;;
17199;SDS011;8716;52.268;20.968;2024-03-08T11:17:22;11.73;;;10.53;;
17199;SDS011;8716;52.268;20.968;2024-03-08T11:19:54;11.40;;;10.80;;
17199;SDS011;8716;52.268;20.968;2024-03-08T11:22:29;16.93;;;13.43;;
17199;SDS011;8716;52.268;20.968;2024-03-08T11:25:01;13.90;;;13.07;;
17199;SDS011;8716;52.268;20.968;2024-03-08T11:27:35;14.17;;;13.27;;
17199;SDS011;8716;52.268;20.968;2024-03-08T11:30:06;24.93;;;11.20;;
17199;SDS011;8716;52.268;20.968;2024-03-08T11:32:44;11.83;;;11.23;;
17199;SDS011;8716;52.268;20.968;2024-03-08T11:35:17;27.93;;;15.37;;
17199;SDS011;8716;52.268;20.968;2024-03-08T11:37:47;12.40;;;11.77;;
17199;SDS011;8716;52.268;20.968;2024-03-08T11:40:17;12.40;;;10.63;;
17199;SDS011;8716;52.268;20.968;2024-03-08T11:42:47;16.27;;;15.47;;
17199;SDS011;8716;52.268;20.968;2024-03-08T11:45:18;14.77;;;13.50;;
17199;SDS011;8716;52.268;20.968;2024-03-08T11:47:48;14.47;;;12.63;;
17199;SDS011;8716;52.268;20.968;2024-03-08T11:50:17;12.10;;;11.50;;
17199;SDS011;8716;52.268;20.968;2024-03-08T11:52:47;15.30;;;13.33;;
17199;SDS011;8716;52.268;20.968;2024-03-08T11:55:17;9.67;;;9.17;;
17199;SDS011;8716;52.268;20.968;2024-03-08T11:57:47;15.00;;;14.20;;
17199;SDS011;8716;52.268;20.968;2024-03-08T12:00:16;42.43;;;12.53;;
17199;SDS011;8716;52.268;20.968;2024-03-08T12:03:02;9.90;;;9.40;;
17199;SDS011;8716;52.268;20.968;2024-03-08T12:05:32;13.80;;;13.10;;
17199;SDS011;8716;52.268;20.968;2024-03-08T12:08:01;15.67;;;12.23;;
17199;SDS011;8716;52.268;20.968;2024-03-08T12:10:33;12.00;;;11.40;;
17199;SDS011;8716;52.268;20.968;2024-03-08T12:13:02;10.67;;;10.10;;
17199;SDS011;8716;52.268;20.968;2024-03-08T12:15:32;13.93;;;9.97;;
17199;SDS011;8716;52.268;20.968;2024-03-08T12:18:01;14.93;;;12.50;;
17199;SDS011;8716;52.268;20.968;2024-03-08T12:20:31;13.10;;;12.40;;
17199;SDS011;8716;52.268;20.968;2024-03-08T12:23:00;14.53;;;13.80;;
17199;SDS011;8716;52.268;20.968;2024-03-08T12:25:30;10.93;;;10.33;;
17199;SDS011;8716;52.268;20.968;2024-03-08T12:28:10;9.13;;;8.53;;
17199;SDS011;8716;52.268;20.968;2024-03-08T12:30:45;7.67;;;7.27;;
17199;SDS011;8716;52.268;20.968;2024-03-08T12:33:15;11.20;;;9.00;;
17199;SDS011;8716;52.268;20.968;2024-03-08T12:35:50;18.77;;;12.27;;
17199;SDS011;8716;52.268;20.968;2024-03-08T12:38:21;11.30;;;10.17;;
17199;SDS011;8716;52.268;20.968;2024-03-08T12:40:54;10.80;;;10.20;;
17199;SDS011;8716;52.268;20.968;2024-03-08T12:43:26;7.53;;;7.17;;
17199;SDS011;8716;52.268;20.968;2024-03-08T12:45:57;11.23;;;10.63;;
17199;SDS011;8716;52.268;20.968;2024-03-08T12:48:26;9.80;;;8.80;;
17199;SDS011;8716;52.268;20.968;2024-03-08T12:50:54;9.67;;;9.17;;
17199;SDS011;8716;52.268;20.968;2024-03-08T12:53:23;11.70;;;9.80;;
17199;SDS011;8716;52.268;20.968;2024-03-08T12:55:52;17.03;;;9.37;;
17199;SDS011;8716;52.268;20.968;2024-03-08T12:58:23;7.47;;;7.07;;
17199;SDS011;8716;52.268;20.968;2024-03-08T13:00:54;7.97;;;7.57;;
17199;SDS011;8716;52.268;20.968;2024-03-08T13:03:22;9.20;;;8.23;;
17199;SDS011;8716;52.268;20.968;2024-03-08T13:05:50;10.40;;;9.87;;
17199;SDS011;8716;52.268;20.968;2024-03-08T13:08:19;14.30;;;12.10;;
17199;SDS011;8716;52.268;20.968;2024-03-08T13:10:48;9.73;;;9.23;;
17199;SDS011;8716;52.268;20.968;2024-03-08T13:13:17;9.73;;;9.23;;
17199;SDS011;8716;52.268;20.968;2024-03-08T13:15:46;26.67;;;10.43;;
17199;SDS011;8716;52.268;20.968;2024-03-08T13:18:16;7.87;;;7.47;;
17199;SDS011;8716;52.268;20.968;2024-03-08T13:20:45;7.47;;;7.07;;
17199;SDS011;8716;52.268;20.968;2024-03-08T13:23:16;8.60;;;8.10;;
17199;SDS011;8716;52.268;20.968;2024-03-08T13:25:45;8.90;;;8.40;;
17199;SDS011;8716;52.268;20.968;2024-03-08T13:28:14;10.13;;;9.63;;
17199;SDS011;8716;52.268;20.968;2024-03-08T13:30:43;6.90;;;6.50;;
17199;SDS011;8716;52.268;20.968;2024-03-08T13:33:12;9.87;;;9.37;;
17199;SDS011;8716;52.268;20.968;2024-03-08T13:35:42;8.70;;;8.20;;
17199;SDS011;8716;52.268;20.968;2024-03-08T13:38:12;11.90;;;10.20;;
17199;SDS011;8716;52.268;20.968;2024-03-08T13:40:41;8.23;;;7.83;;
17199;SDS011;8716;52.268;20.968;2024-03-08T13:43:10;12.00;;;10.70;;
17199;SDS011;8716;52.268;20.968;2024-03-08T13:45:39;7.13;;;6.73;;
17199;SDS011;8716;52.268;20.968;2024-03-08T13:48:07;8.97;;;7.83;;
17199;SDS011;8716;52.268;20.968;2024-03-08T13:50:39;7.27;;;6.87;;
17199;SDS011;8716;52.268;20.968;2024-03-08T13:53:09;7.97;;;7.57;;
17199;SDS011;8716;52.268;20.968;2024-03-08T13:55:38;8.77;;;8.27;;
17199;SDS011;8716;52.268;20.968;2024-03-08T13:58:07;16.60;;;8.70;;
17199;SDS011;8716;52.268;20.968;2024-03-08T14:00:36;11.00;;;10.00;;
17199;SDS011;8716;52.268;20.968;2024-03-08T14:03:05;7.67;;;7.27;;
17199;SDS011;8716;52.268;20.968;2024-03-08T14:05:33;8.77;;;8.30;;
17199;SDS011;8716;52.268;20.968;2024-03-08T14:08:02;17.70;;;7.30;;
17199;SDS011;8716;52.268;20.968;2024-03-08T14:10:32;7.97;;;7.53;;
17199;SDS011;8716;52.268;20.968;2024-03-08T14:13:01;5.33;;;5.03;;
17199;SDS011;8716;52.268;20.968;2024-03-08T14:15:31;9.80;;;8.50;;
17199;SDS011;8716;52.268;20.968;2024-03-08T14:18:00;10.00;;;8.90;;
17199;SDS011;8716;52.268;20.968;2024-03-08T14:20:29;6.90;;;6.50;;
17199;SDS011;8716;52.268;20.968;2024-03-08T14:22:59;9.63;;;9.13;;
17199;SDS011;8716;52.268;20.968;2024-03-08T14:25:28;9.17;;;8.67;;
17199;SDS011;8716;52.268;20.968;2024-03-08T14:27:58;7.63;;;7.23;;
17199;SDS011;8716;52.268;20.968;2024-03-08T14:30:30;10.63;;;10.07;;
17199;SDS011;8716;52.268;20.968;2024-03-08T14:33:05;7.60;;;6.70;;
17199;SDS011;8716;52.268;20.968;2024-03-08T14:35:36;13.03;;;12.33;;
17199;SDS011;8716;52.268;20.968;2024-03-08T14:38:04;9.60;;;8.63;;
17199;SDS011;8716;52.268;20.968;2024-03-08T14:40:35;12.00;;;9.43;;
17199;SDS011;8716;52.268;20.968;2024-03-08T14:43:06;9.67;;;9.17;;
17199;SDS011;8716;52.268;20.968;2024-03-08T14:45:36;6.40;;;6.00;;